sensor_id;sensor_type;location;lat;lon;timestamp;pressure;altitude;pressure_sealevel;temperature;humidity
41706;BME280;27385;51.096;17.190;2022-12-07T00:01:24;99844.48;;;1.98;100.00
41706;BME280;27385;51.096;17.190;2022-12-07T00:03:58;99846.23;;;1.98;100.00
41706;BME280;27385;51.096;17.190;2022-12-07T00:06:37;99843.71;;;1.97;100.00
41706;BME280;27385;51.096;17.190;2022-12-07T00:09:13;99840.08;;;1.98;100.00
41706;BME280;27385;51.096;17.190;2022-12-07T00:11:47;99841.57;;;1.98;100.00
41706;BME280;27385;51.096;17.190;2022-12-07T00:14:19;99840.29;;;1.99;100.00
41706;BME280;27385;51.096;17.190;2022-12-07T00:16:52;99838.33;;;1.99;100.00
41706;BME280;27385;51.096;17.190;2022-12-07T00:19:24;99835.88;;;1.99;100.00
41706;BME280;27385;51.096;17.190;2022-12-07T00:21:55;99835.88;;;1.99;100.00
41706;BME280;27385;51.096;17.190;2022-12-07T00:24:26;99836.80;;;2.00;100.00
41706;BME280;27385;51.096;17.190;2022-12-07T00:26:57;99833.53;;;1.99;100.00
41706;BME280;27385;51.096;17.190;2022-12-07T00:29:29;99832.62;;;1.98;100.00
41706;BME280;27385;51.096;17.190;2022-12-07T00:32:00;99831.53;;;1.97;100.00
41706;BME280;27385;51.096;17.190;2022-12-07T00:34:32;99828.49;;;1.96;100.00
41706;BME280;27385;51.096;17.190;2022-12-07T00:37:03;99827.41;;;1.95;100.00
41706;BME280;27385;51.096;17.190;2022-12-07T00:39:34;99823.64;;;1.95;100.00
41706;BME280;27385;51.096;17.190;2022-12-07T00:42:06;99824.60;;;1.94;100.00
41706;BME280;27385;51.096;17.190;2022-12-07T00:44:37;99820.20;;;1.94;100.00
41706;BME280;27385;51.096;17.190;2022-12-07T00:47:09;99815.55;;;1.95;100.00
41706;BME280;27385;51.096;17.190;2022-12-07T00:49:40;99813.80;;;1.96;100.00
41706;BME280;27385;51.096;17.190;2022-12-07T00:52:14;99811.30;;;1.95;100.00
41706;BME280;27385;51.096;17.190;2022-12-07T00:54:45;99813.25;;;1.96;100.00
41706;BME280;27385;51.096;17.190;2022-12-07T00:57:16;99815.21;;;1.96;100.00
41706;BME280;27385;51.096;17.190;2022-12-07T00:59:48;99821.15;;;1.97;100.00
41706;BME280;27385;51.096;17.190;2022-12-07T01:02:19;99821.29;;;1.98;100.00
41706;BME280;27385;51.096;17.190;2022-12-07T01:04:51;99824.73;;;1.99;100.00
41706;BME280;27385;51.096;17.190;2022-12-07T01:07:22;99826.44;;;1.99;100.00
41706;BME280;27385;51.096;17.190;2022-12-07T01:09:56;99820.40;;;1.99;100.00
41706;BME280;27385;51.096;17.190;2022-12-07T01:12:27;99823.65;;;1.98;100.00
41706;BME280;27385;51.096;17.190;2022-12-07T01:14:59;99819.81;;;1.97;100.00
41706;BME280;27385;51.096;17.190;2022-12-07T01:17:31;99816.94;;;1.96;100.00
41706;BME280;27385;51.096;17.190;2022-12-07T01:20:03;99817.38;;;1.94;100.00
41706;BME280;27385;51.096;17.190;2022-12-07T01:22:38;99817.66;;;1.92;100.00
41706;BME280;27385;51.096;17.190;2022-12-07T01:25:12;99814.38;;;1.92;100.00
41706;BME280;27385;51.096;17.190;2022-12-07T01:27:44;99817.84;;;1.91;100.00
41706;BME280;27385;51.096;17.190;2022-12-07T01:30:16;99812.72;;;1.91;100.00
41706;BME280;27385;51.096;17.190;2022-12-07T01:32:47;99815.63;;;1.91;100.00
41706;BME280;27385;51.096;17.190;2022-12-07T01:35:19;99814.15;;;1.91;100.00
41706;BME280;27385;51.096;17.190;2022-12-07T01:37:51;99814.96;;;1.90;100.00
41706;BME280;27385;51.096;17.190;2022-12-07T01:40:23;99814.64;;;1.90;100.00
41706;BME280;27385;51.096;17.190;2022-12-07T01:42:54;99813.09;;;1.90;100.00
41706;BME280;27385;51.096;17.190;2022-12-07T01:45:40;99810.02;;;1.90;100.00
41706;BME280;27385;51.096;17.190;2022-12-07T01:48:13;99812.39;;;1.90;100.00
41706;BME280;27385;51.096;17.190;2022-12-07T01:50:47;99808.91;;;1.89;100.00
41706;BME280;27385;51.096;17.190;2022-12-07T01:53:20;99809.80;;;1.89;100.00
41706;BME280;27385;51.096;17.190;2022-12-07T01:55:53;99810.58;;;1.89;100.00
41706;BME280;27385;51.096;17.190;2022-12-07T01:58:27;99813.05;;;1.87;100.00
41706;BME280;27385;51.096;17.190;2022-12-07T02:00:59;99816.20;;;1.87;100.00
41706;BME280;27385;51.096;17.190;2022-12-07T02:03:34;99816.52;;;1.87;100.00
41706;BME280;27385;51.096;17.190;2022-12-07T02:06:08;99818.27;;;1.87;100.00
41706;BME280;27385;51.096;17.190;2022-12-07T02:08:41;99822.42;;;1.87;100.00
41706;BME280;27385;51.096;17.190;2022-12-07T02:11:13;99819.05;;;1.87;100.00
41706;BME280;27385;51.096;17.190;2022-12-07T02:13:46;99818.52;;;1.86;100.00
41706;BME280;27385;51.096;17.190;2022-12-07T02:16:27;99815.77;;;1.86;100.00
41706;BME280;27385;51.096;17.190;2022-12-07T02:22:00;99814.83;;;1.86;100.00
41706;BME280;27385;51.096;17.190;2022-12-07T02:24:51;99815.79;;;1.85;100.00
41706;BME280;27385;51.096;17.190;2022-12-07T02:27:39;99810.94;;;1.84;100.00
41706;BME280;27385;51.096;17.190;2022-12-07T02:30:15;99807.70;;;1.85;100.00
41706;BME280;27385;51.096;17.190;2022-12-07T02:32:53;99804.88;;;1.84;100.00
41706;BME280;27385;51.096;17.190;2022-12-07T02:35:30;99806.95;;;1.83;100.00
41706;BME280;27385;51.096;17.190;2022-12-07T02:38:12;99808.23;;;1.82;100.00
41706;BME280;27385;51.096;17.190;2022-12-07T02:40:50;99811.09;;;1.81;100.00
41706;BME280;27385;51.096;17.190;2022-12-07T02:43:26;99810.65;;;1.80;100.00
41706;BME280;27385;51.096;17.190;2022-12-07T02:46:01;99808.35;;;1.77;100.00
41706;BME280;27385;51.096;17.190;2022-12-07T02:48:35;99810.81;;;1.77;100.00
41706;BME280;27385;51.096;17.190;2022-12-07T02:51:09;99813.13;;;1.75;100.00
41706;BME280;27385;51.096;17.190;2022-12-07T02:53:41;99807.44;;;1.73;100.00
41706;BME280;27385;51.096;17.190;2022-12-07T02:56:26;99806.70;;;1.71;100.00
41706;BME280;27385;51.096;17.190;2022-12-07T02:59:07;99810.17;;;1.70;100.00
41706;BME280;27385;51.096;17.190;2022-12-07T03:01:40;99809.17;;;1.69;100.00
41706;BME280;27385;51.096;17.190;2022-12-07T03:04:27;99806.67;;;1.69;100.00
41706;BME280;27385;51.096;17.190;2022-12-07T03:07:10;99806.25;;;1.67;100.00
41706;BME280;27385;51.096;17.190;2022-12-07T03:09:42;99804.85;;;1.66;100.00
41706;BME280;27385;51.096;17.190;2022-12-07T03:12:20;99800.50;;;1.63;100.00
41706;BME280;27385;51.096;17.190;2022-12-07T03:14:59;99806.90;;;1.62;100.00
41706;BME280;27385;51.096;17.190;2022-12-07T03:17:34;99807.15;;;1.61;100.00
41706;BME280;27385;51.096;17.190;2022-12-07T03:20:10;99808.27;;;1.60;100.00
41706;BME280;27385;51.096;17.190;2022-12-07T03:22:44;99803.73;;;1.60;100.00
41706;BME280;27385;51.096;17.190;2022-12-07T03:25:18;99802.14;;;1.60;100.00
41706;BME280;27385;51.096;17.190;2022-12-07T03:27:52;99795.46;;;1.61;100.00
41706;BME280;27385;51.096;17.190;2022-12-07T03:30:29;99799.64;;;1.60;100.00
41706;BME280;27385;51.096;17.190;2022-12-07T03:33:06;99796.41;;;1.60;100.00
41706;BME280;27385;51.096;17.190;2022-12-07T03:35:41;99795.00;;;1.60;100.00
41706;BME280;27385;51.096;17.190;2022-12-07T03:38:17;99792.95;;;1.60;100.00
41706;BME280;27385;51.096;17.190;2022-12-07T03:40:57;99794.85;;;1.60;100.00
41706;BME280;27385;51.096;17.190;2022-12-07T03:43:31;99789.48;;;1.60;100.00
41706;BME280;27385;51.096;17.190;2022-12-07T03:46:09;99785.20;;;1.59;100.00
41706;BME280;27385;51.096;17.190;2022-12-07T03:48:54;99783.16;;;1.58;100.00
41706;BME280;27385;51.096;17.190;2022-12-07T03:51:28;99782.74;;;1.59;100.00
41706;BME280;27385;51.096;17.190;2022-12-07T03:54:09;99778.88;;;1.60;100.00
41706;BME280;27385;51.096;17.190;2022-12-07T03:56:42;99777.09;;;1.59;100.00
41706;BME280;27385;51.096;17.190;2022-12-07T03:59:16;99776.87;;;1.59;100.00
41706;BME280;27385;51.096;17.190;2022-12-07T04:01:54;99774.84;;;1.58;100.00
41706;BME280;27385;51.096;17.190;2022-12-07T04:04:26;99776.65;;;1.58;100.00
41706;BME280;27385;51.096;17.190;2022-12-07T04:06:57;99777.24;;;1.59;100.00
41706;BME280;27385;51.096;17.190;2022-12-07T04:09:29;99778.83;;;1.59;100.00
41706;BME280;27385;51.096;17.190;2022-12-07T04:12:00;99776.88;;;1.59;100.00
41706;BME280;27385;51.096;17.190;2022-12-07T04:14:31;99777.34;;;1.59;100.00
41706;BME280;27385;51.096;17.190;2022-12-07T04:17:03;99779.59;;;1.60;100.00
41706;BME280;27385;51.096;17.190;2022-12-07T04:19:35;99776.73;;;1.61;100.00
41706;BME280;27385;51.096;17.190;2022-12-07T04:22:07;99782.38;;;1.61;100.00
41706;BME280;27385;51.096;17.190;2022-12-07T04:24:39;99783.58;;;1.61;100.00
41706;BME280;27385;51.096;17.190;2022-12-07T04:27:10;99785.36;;;1.62;100.00
41706;BME280;27385;51.096;17.190;2022-12-07T04:29:41;99784.19;;;1.61;100.00
41706;BME280;27385;51.096;17.190;2022-12-07T04:32:13;99779.66;;;1.61;100.00
41706;BME280;27385;51.096;17.190;2022-12-07T04:34:44;99781.08;;;1.61;100.00
41706;BME280;27385;51.096;17.190;2022-12-07T04:37:16;99780.42;;;1.61;100.00
41706;BME280;27385;51.096;17.190;2022-12-07T04:39:47;99778.23;;;1.61;100.00
41706;BME280;27385;51.096;17.190;2022-12-07T04:42:19;99778.16;;;1.61;100.00
41706;BME280;27385;51.096;17.190;2022-12-07T04:44:50;99776.37;;;1.60;100.00
41706;BME280;27385;51.096;17.190;2022-12-07T04:47:22;99777.15;;;1.60;100.00
41706;BME280;27385;51.096;17.190;2022-12-07T04:49:55;99779.02;;;1.61;100.00
41706;BME280;27385;51.096;17.190;2022-12-07T04:52:26;99772.44;;;1.60;100.00
41706;BME280;27385;51.096;17.190;2022-12-07T04:54:57;99777.95;;;1.59;100.00
41706;BME280;27385;51.096;17.190;2022-12-07T04:57:30;99776.33;;;1.59;100.00
41706;BME280;27385;51.096;17.190;2022-12-07T05:00:01;99777.91;;;1.58;100.00
41706;BME280;27385;51.096;17.190;2022-12-07T05:02:33;99777.71;;;1.57;100.00
41706;BME280;27385;51.096;17.190;2022-12-07T05:05:05;99771.95;;;1.55;100.00
41706;BME280;27385;51.096;17.190;2022-12-07T05:07:37;99773.21;;;1.54;100.00
41706;BME280;27385;51.096;17.190;2022-12-07T05:10:10;99774.95;;;1.54;100.00
41706;BME280;27385;51.096;17.190;2022-12-07T05:12:42;99768.63;;;1.52;100.00
41706;BME280;27385;51.096;17.190;2022-12-07T05:15:14;99772.96;;;1.51;100.00
41706;BME280;27385;51.096;17.190;2022-12-07T05:17:46;99772.17;;;1.51;100.00
41706;BME280;27385;51.096;17.190;2022-12-07T05:20:18;99771.86;;;1.51;100.00
41706;BME280;27385;51.096;17.190;2022-12-07T05:22:49;99770.01;;;1.51;100.00
41706;BME280;27385;51.096;17.190;2022-12-07T05:25:21;99771.55;;;1.51;100.00
41706;BME280;27385;51.096;17.190;2022-12-07T05:27:53;99773.18;;;1.52;100.00
41706;BME280;27385;51.096;17.190;2022-12-07T05:30:27;99771.05;;;1.53;100.00
41706;BME280;27385;51.096;17.190;2022-12-07T05:32:59;99766.37;;;1.54;100.00
41706;BME280;27385;51.096;17.190;2022-12-07T05:35:33;99766.05;;;1.55;100.00
41706;BME280;27385;51.096;17.190;2022-12-07T05:38:05;99769.55;;;1.56;100.00
41706;BME280;27385;51.096;17.190;2022-12-07T05:40:37;99768.28;;;1.57;100.00
41706;BME280;27385;51.096;17.190;2022-12-07T05:43:10;99768.33;;;1.58;100.00
41706;BME280;27385;51.096;17.190;2022-12-07T05:45:41;99768.74;;;1.60;100.00
41706;BME280;27385;51.096;17.190;2022-12-07T05:48:13;99773.96;;;1.62;100.00
41706;BME280;27385;51.096;17.190;2022-12-07T05:50:44;99776.67;;;1.63;100.00
41706;BME280;27385;51.096;17.190;2022-12-07T05:53:19;99775.70;;;1.65;100.00
41706;BME280;27385;51.096;17.190;2022-12-07T05:55:51;99770.89;;;1.66;100.00
41706;BME280;27385;51.096;17.190;2022-12-07T05:58:23;99778.41;;;1.67;100.00
41706;BME280;27385;51.096;17.190;2022-12-07T06:01:12;99780.73;;;1.69;100.00
41706;BME280;27385;51.096;17.190;2022-12-07T06:03:43;99782.73;;;1.70;100.00
41706;BME280;27385;51.096;17.190;2022-12-07T06:06:15;99784.05;;;1.71;100.00
41706;BME280;27385;51.096;17.190;2022-12-07T06:08:46;99772.89;;;1.71;100.00
41706;BME280;27385;51.096;17.190;2022-12-07T06:11:18;99773.12;;;1.72;100.00
41706;BME280;27385;51.096;17.190;2022-12-07T06:14:07;99772.77;;;1.73;100.00
41706;BME280;27385;51.096;17.190;2022-12-07T06:16:41;99776.21;;;1.74;100.00
41706;BME280;27385;51.096;17.190;2022-12-07T06:19:12;99777.87;;;1.74;100.00
41706;BME280;27385;51.096;17.190;2022-12-07T06:21:44;99774.41;;;1.74;100.00
41706;BME280;27385;51.096;17.190;2022-12-07T06:24:16;99773.52;;;1.74;100.00
41706;BME280;27385;51.096;17.190;2022-12-07T06:26:48;99766.91;;;1.74;100.00
41706;BME280;27385;51.096;17.190;2022-12-07T06:29:20;99767.61;;;1.74;100.00
41706;BME280;27385;51.096;17.190;2022-12-07T06:31:52;99773.34;;;1.75;100.00
41706;BME280;27385;51.096;17.190;2022-12-07T06:34:24;99779.95;;;1.75;100.00
41706;BME280;27385;51.096;17.190;2022-12-07T06:36:56;99774.84;;;1.75;100.00
41706;BME280;27385;51.096;17.190;2022-12-07T06:39:29;99776.14;;;1.77;100.00
41706;BME280;27385;51.096;17.190;2022-12-07T06:42:01;99780.44;;;1.77;100.00
41706;BME280;27385;51.096;17.190;2022-12-07T06:44:34;99778.55;;;1.78;100.00
41706;BME280;27385;51.096;17.190;2022-12-07T06:47:06;99776.86;;;1.79;100.00
41706;BME280;27385;51.096;17.190;2022-12-07T06:49:39;99774.94;;;1.80;100.00
41706;BME280;27385;51.096;17.190;2022-12-07T06:52:10;99774.23;;;1.81;100.00
41706;BME280;27385;51.096;17.190;2022-12-07T06:54:42;99774.69;;;1.81;100.00
41706;BME280;27385;51.096;17.190;2022-12-07T06:57:14;99775.86;;;1.81;100.00
41706;BME280;27385;51.096;17.190;2022-12-07T06:59:46;99775.08;;;1.81;100.00
41706;BME280;27385;51.096;17.190;2022-12-07T07:02:17;99777.20;;;1.80;100.00
41706;BME280;27385;51.096;17.190;2022-12-07T07:04:50;99779.55;;;1.81;100.00
41706;BME280;27385;51.096;17.190;2022-12-07T07:07:29;99777.44;;;1.81;100.00
41706;BME280;27385;51.096;17.190;2022-12-07T07:10:01;99776.55;;;1.81;100.00
41706;BME280;27385;51.096;17.190;2022-12-07T07:12:33;99775.52;;;1.82;100.00
41706;BME280;27385;51.096;17.190;2022-12-07T07:15:06;99775.52;;;1.82;100.00
41706;BME280;27385;51.096;17.190;2022-12-07T07:17:37;99771.85;;;1.81;100.00
41706;BME280;27385;51.096;17.190;2022-12-07T07:20:11;99767.85;;;1.81;100.00
41706;BME280;27385;51.096;17.190;2022-12-07T07:22:43;99769.25;;;1.81;100.00
41706;BME280;27385;51.096;17.190;2022-12-07T07:25:15;99763.29;;;1.80;99.96
41706;BME280;27385;51.096;17.190;2022-12-07T07:27:46;99765.75;;;1.80;99.81
41706;BME280;27385;51.096;17.190;2022-12-07T07:30:18;99767.94;;;1.81;99.51
41706;BME280;27385;51.096;17.190;2022-12-07T07:32:50;99767.13;;;1.81;99.47
41706;BME280;27385;51.096;17.190;2022-12-07T07:35:22;99763.52;;;1.81;99.31
41706;BME280;27385;51.096;17.190;2022-12-07T07:37:53;99767.61;;;1.81;99.52
41706;BME280;27385;51.096;17.190;2022-12-07T07:40:25;99763.61;;;1.81;99.38
41706;BME280;27385;51.096;17.190;2022-12-07T07:42:58;99767.36;;;1.81;99.23
41706;BME280;27385;51.096;17.190;2022-12-07T07:45:32;99766.02;;;1.82;99.17
41706;BME280;27385;51.096;17.190;2022-12-07T07:48:03;99769.19;;;1.84;99.35
41706;BME280;27385;51.096;17.190;2022-12-07T07:50:35;99767.71;;;1.86;99.44
41706;BME280;27385;51.096;17.190;2022-12-07T07:53:06;99768.90;;;1.89;99.35
41706;BME280;27385;51.096;17.190;2022-12-07T07:55:41;99763.80;;;1.91;99.54
41706;BME280;27385;51.096;17.190;2022-12-07T07:58:12;99763.59;;;1.94;99.31
41706;BME280;27385;51.096;17.190;2022-12-07T08:00:43;99762.80;;;1.97;99.12
41706;BME280;27385;51.096;17.190;2022-12-07T08:03:15;99764.86;;;1.99;99.14
41706;BME280;27385;51.096;17.190;2022-12-07T08:05:46;99766.15;;;2.01;99.29
41706;BME280;27385;51.096;17.190;2022-12-07T08:08:17;99767.85;;;2.03;99.38
41706;BME280;27385;51.096;17.190;2022-12-07T08:10:50;99775.66;;;2.04;99.10
41706;BME280;27385;51.096;17.190;2022-12-07T08:13:21;99774.44;;;2.06;99.15
41706;BME280;27385;51.096;17.190;2022-12-07T08:15:53;99776.79;;;2.07;98.77
41706;BME280;27385;51.096;17.190;2022-12-07T08:18:25;99780.75;;;2.08;98.67
41706;BME280;27385;51.096;17.190;2022-12-07T08:21:00;99782.67;;;2.10;98.92
41706;BME280;27385;51.096;17.190;2022-12-07T08:23:32;99783.52;;;2.11;98.90
41706;BME280;27385;51.096;17.190;2022-12-07T08:26:05;99779.78;;;2.12;98.69
41706;BME280;27385;51.096;17.190;2022-12-07T08:28:37;99782.20;;;2.13;98.65
41706;BME280;27385;51.096;17.190;2022-12-07T08:31:12;99778.25;;;2.13;98.62
41706;BME280;27385;51.096;17.190;2022-12-07T08:33:44;99781.50;;;2.13;98.31
41706;BME280;27385;51.096;17.190;2022-12-07T08:36:15;99778.37;;;2.12;98.18
41706;BME280;27385;51.096;17.190;2022-12-07T08:38:48;99781.66;;;2.13;98.19
41706;BME280;27385;51.096;17.190;2022-12-07T08:41:19;99782.27;;;2.12;98.09
41706;BME280;27385;51.096;17.190;2022-12-07T08:43:52;99778.29;;;2.12;97.98
41706;BME280;27385;51.096;17.190;2022-12-07T08:46:28;99776.70;;;2.13;97.86
41706;BME280;27385;51.096;17.190;2022-12-07T08:49:10;99776.01;;;2.15;98.05
41706;BME280;27385;51.096;17.190;2022-12-07T08:51:42;99776.33;;;2.17;97.98
41706;BME280;27385;51.096;17.190;2022-12-07T08:54:16;99770.95;;;2.19;97.45
41706;BME280;27385;51.096;17.190;2022-12-07T08:56:48;99769.77;;;2.22;97.81
41706;BME280;27385;51.096;17.190;2022-12-07T08:59:21;99768.17;;;2.26;97.40
41706;BME280;27385;51.096;17.190;2022-12-07T09:01:54;99761.40;;;2.29;97.50
41706;BME280;27385;51.096;17.190;2022-12-07T09:04:25;99756.65;;;2.33;97.71
41706;BME280;27385;51.096;17.190;2022-12-07T09:06:57;99753.81;;;2.35;97.21
41706;BME280;27385;51.096;17.190;2022-12-07T09:09:28;99750.60;;;2.37;96.62
41706;BME280;27385;51.096;17.190;2022-12-07T09:12:00;99749.77;;;2.39;96.76
41706;BME280;27385;51.096;17.190;2022-12-07T09:14:34;99749.70;;;2.42;96.42
41706;BME280;27385;51.096;17.190;2022-12-07T09:17:10;99747.77;;;2.46;96.83
41706;BME280;27385;51.096;17.190;2022-12-07T09:19:42;99746.65;;;2.53;97.21
41706;BME280;27385;51.096;17.190;2022-12-07T09:22:13;99741.23;;;2.60;97.34
41706;BME280;27385;51.096;17.190;2022-12-07T09:24:45;99736.88;;;2.67;96.97
41706;BME280;27385;51.096;17.190;2022-12-07T09:27:16;99733.59;;;2.74;96.75
41706;BME280;27385;51.096;17.190;2022-12-07T09:29:48;99733.29;;;2.79;96.34
41706;BME280;27385;51.096;17.190;2022-12-07T09:32:20;99727.46;;;2.84;95.54
41706;BME280;27385;51.096;17.190;2022-12-07T09:34:51;99726.21;;;2.89;95.44
41706;BME280;27385;51.096;17.190;2022-12-07T09:37:23;99725.14;;;2.93;95.64
41706;BME280;27385;51.096;17.190;2022-12-07T09:39:54;99721.37;;;2.98;95.65
41706;BME280;27385;51.096;17.190;2022-12-07T09:42:31;99718.61;;;3.03;94.88
41706;BME280;27385;51.096;17.190;2022-12-07T09:45:07;99714.05;;;3.08;94.49
41706;BME280;27385;51.096;17.190;2022-12-07T09:47:38;99709.09;;;3.13;94.95
41706;BME280;27385;51.096;17.190;2022-12-07T09:50:15;99705.14;;;3.18;94.72
41706;BME280;27385;51.096;17.190;2022-12-07T09:52:48;99708.86;;;3.23;94.36
41706;BME280;27385;51.096;17.190;2022-12-07T09:55:24;99701.89;;;3.26;93.83
41706;BME280;27385;51.096;17.190;2022-12-07T09:57:58;99701.13;;;3.30;93.45
41706;BME280;27385;51.096;17.190;2022-12-07T10:00:30;99697.90;;;3.35;93.46
41706;BME280;27385;51.096;17.190;2022-12-07T10:03:03;99699.69;;;3.41;93.45
41706;BME280;27385;51.096;17.190;2022-12-07T10:05:38;99695.25;;;3.44;93.35
41706;BME280;27385;51.096;17.190;2022-12-07T10:08:12;99696.21;;;3.48;93.25
41706;BME280;27385;51.096;17.190;2022-12-07T10:10:48;99695.58;;;3.51;92.98
41706;BME280;27385;51.096;17.190;2022-12-07T10:13:23;99692.73;;;3.54;93.39
41706;BME280;27385;51.096;17.190;2022-12-07T10:16:05;99686.30;;;3.57;93.01
41706;BME280;27385;51.096;17.190;2022-12-07T10:18:39;99679.04;;;3.60;93.03
41706;BME280;27385;51.096;17.190;2022-12-07T10:21:16;99667.08;;;3.63;93.61
41706;BME280;27385;51.096;17.190;2022-12-07T10:24:03;99667.38;;;3.69;93.71
41706;BME280;27385;51.096;17.190;2022-12-07T10:26:36;99661.20;;;3.74;93.81
41706;BME280;27385;51.096;17.190;2022-12-07T10:29:16;99662.18;;;3.77;93.69
41706;BME280;27385;51.096;17.190;2022-12-07T10:31:53;99655.77;;;3.80;93.61
41706;BME280;27385;51.096;17.190;2022-12-07T10:34:27;99656.18;;;3.82;93.60
41706;BME280;27385;51.096;17.190;2022-12-07T10:37:19;99654.58;;;3.83;93.42
41706;BME280;27385;51.096;17.190;2022-12-07T10:39:56;99655.59;;;3.81;93.40
41706;BME280;27385;51.096;17.190;2022-12-07T10:42:30;99658.63;;;3.80;93.40
41706;BME280;27385;51.096;17.190;2022-12-07T10:45:13;99659.77;;;3.79;93.23
41706;BME280;27385;51.096;17.190;2022-12-07T10:47:49;99661.69;;;3.78;93.33
41706;BME280;27385;51.096;17.190;2022-12-07T10:50:44;99657.75;;;3.76;93.35
41706;BME280;27385;51.096;17.190;2022-12-07T10:53:38;99657.21;;;3.73;93.34
41706;BME280;27385;51.096;17.190;2022-12-07T10:56:39;99648.60;;;3.71;93.64
41706;BME280;27385;51.096;17.190;2022-12-07T10:59:48;99650.20;;;3.66;93.19
41706;BME280;27385;51.096;17.190;2022-12-07T11:02:43;99654.68;;;3.59;93.17
41706;BME280;27385;51.096;17.190;2022-12-07T11:05:25;99651.40;;;3.54;93.38
41706;BME280;27385;51.096;17.190;2022-12-07T11:08:09;99648.52;;;3.53;93.54
41706;BME280;27385;51.096;17.190;2022-12-07T11:10:47;99641.86;;;3.49;92.28
41706;BME280;27385;51.096;17.190;2022-12-07T11:13:28;99647.18;;;3.48;92.61
41706;BME280;27385;51.096;17.190;2022-12-07T11:16:12;99649.58;;;3.47;91.98
41706;BME280;27385;51.096;17.190;2022-12-07T11:18:55;99650.06;;;3.45;92.09
41706;BME280;27385;51.096;17.190;2022-12-07T11:21:34;99650.93;;;3.42;92.44
41706;BME280;27385;51.096;17.190;2022-12-07T11:24:13;99651.58;;;3.39;92.87
41706;BME280;27385;51.096;17.190;2022-12-07T11:27:04;99651.79;;;3.35;92.75
41706;BME280;27385;51.096;17.190;2022-12-07T11:30:06;99637.67;;;3.30;92.72
41706;BME280;27385;51.096;17.190;2022-12-07T11:32:56;99631.81;;;3.27;92.85
41706;BME280;27385;51.096;17.190;2022-12-07T11:35:39;99630.17;;;3.26;93.11
41706;BME280;27385;51.096;17.190;2022-12-07T11:38:17;99626.86;;;3.28;93.21
41706;BME280;27385;51.096;17.190;2022-12-07T11:40:50;99624.40;;;3.32;93.04
41706;BME280;27385;51.096;17.190;2022-12-07T11:43:28;99624.23;;;3.34;92.63
41706;BME280;27385;51.096;17.190;2022-12-07T11:46:08;99627.90;;;3.36;92.14
41706;BME280;27385;51.096;17.190;2022-12-07T11:48:45;99626.61;;;3.36;92.22
41706;BME280;27385;51.096;17.190;2022-12-07T11:51:20;99625.42;;;3.36;92.43
41706;BME280;27385;51.096;17.190;2022-12-07T11:53:55;99624.36;;;3.38;92.46
41706;BME280;27385;51.096;17.190;2022-12-07T11:56:29;99621.96;;;3.36;91.98
41706;BME280;27385;51.096;17.190;2022-12-07T11:59:07;99624.93;;;3.37;91.90
41706;BME280;27385;51.096;17.190;2022-12-07T12:01:50;99621.23;;;3.37;91.69
41706;BME280;27385;51.096;17.190;2022-12-07T12:04:42;99623.98;;;3.37;91.41
41706;BME280;27385;51.096;17.190;2022-12-07T12:07:23;99626.95;;;3.38;91.55
41706;BME280;27385;51.096;17.190;2022-12-07T12:09:58;99626.20;;;3.37;91.31
41706;BME280;27385;51.096;17.190;2022-12-07T12:12:48;99621.83;;;3.36;91.79
41706;BME280;27385;51.096;17.190;2022-12-07T12:15:42;99618.21;;;3.35;91.95
41706;BME280;27385;51.096;17.190;2022-12-07T12:18:44;99622.27;;;3.34;91.78
41706;BME280;27385;51.096;17.190;2022-12-07T12:21:22;99625.05;;;3.32;91.81
41706;BME280;27385;51.096;17.190;2022-12-07T12:24:02;99629.45;;;3.29;91.95
41706;BME280;27385;51.096;17.190;2022-12-07T12:26:37;99631.19;;;3.26;91.72
41706;BME280;27385;51.096;17.190;2022-12-07T12:29:24;99620.02;;;3.25;91.61
41706;BME280;27385;51.096;17.190;2022-12-07T12:32:17;99618.61;;;3.26;91.87
41706;BME280;27385;51.096;17.190;2022-12-07T12:38:24;99616.75;;;3.27;91.60
41706;BME280;27385;51.096;17.190;2022-12-07T12:40:57;99618.61;;;3.25;91.88
41706;BME280;27385;51.096;17.190;2022-12-07T12:44:01;99620.76;;;3.27;91.60
41706;BME280;27385;51.096;17.190;2022-12-07T12:46:49;99613.29;;;3.29;91.70
41706;BME280;27385;51.096;17.190;2022-12-07T12:49:54;99609.17;;;3.29;91.30
41706;BME280;27385;51.096;17.190;2022-12-07T12:56:26;99613.34;;;3.35;91.22
41706;BME280;27385;51.096;17.190;2022-12-07T12:59:28;99611.04;;;3.38;91.30
41706;BME280;27385;51.096;17.190;2022-12-07T13:02:21;99614.63;;;3.39;90.74
41706;BME280;27385;51.096;17.190;2022-12-07T13:04:55;99612.11;;;3.39;90.93
41706;BME280;27385;51.096;17.190;2022-12-07T13:07:52;99613.70;;;3.38;90.99
41706;BME280;27385;51.096;17.190;2022-12-07T13:10:44;99619.60;;;3.39;90.87
41706;BME280;27385;51.096;17.190;2022-12-07T13:13:35;99618.10;;;3.39;90.91
41706;BME280;27385;51.096;17.190;2022-12-07T13:16:39;99618.91;;;3.38;90.98
41706;BME280;27385;51.096;17.190;2022-12-07T13:25:33;99614.39;;;3.39;90.55
41706;BME280;27385;51.096;17.190;2022-12-07T13:28:14;99621.96;;;3.39;90.79
41706;BME280;27385;51.096;17.190;2022-12-07T13:30:58;99620.50;;;3.38;90.54
41706;BME280;27385;51.096;17.190;2022-12-07T13:33:32;99621.10;;;3.39;90.69
41706;BME280;27385;51.096;17.190;2022-12-07T13:36:08;99621.13;;;3.38;90.62
41706;BME280;27385;51.096;17.190;2022-12-07T13:38:50;99626.99;;;3.37;90.31
41706;BME280;27385;51.096;17.190;2022-12-07T13:41:23;99624.58;;;3.36;90.51
41706;BME280;27385;51.096;17.190;2022-12-07T13:44:01;99626.07;;;3.36;90.81
41706;BME280;27385;51.096;17.190;2022-12-07T13:46:49;99630.17;;;3.36;90.50
41706;BME280;27385;51.096;17.190;2022-12-07T13:49:25;99628.52;;;3.36;90.35
41706;BME280;27385;51.096;17.190;2022-12-07T13:52:15;99635.81;;;3.37;90.40
41706;BME280;27385;51.096;17.190;2022-12-07T13:54:49;99630.91;;;3.37;90.36
41706;BME280;27385;51.096;17.190;2022-12-07T13:57:28;99630.30;;;3.37;90.27